Time;durP1;ratioP1;P1;durP2;ratioP2;P2;SDS_P1;SDS_P2;PMS_P1;PMS_P2;Temp;Humidity;BMP_temperature;BMP_pressure;BME280_temperature;BME280_humidity;BME280_pressure;Samples;Min_cycle;Max_cycle;Signal;HPM_P1;HPM_P2
2022/02/06 00:01:02;;;;;;;4.60;2.53;;;4.60;99.90;;;;;;5040081;28;20032;-65
2022/02/06 00:03:31;;;;;;;10.30;2.00;;;4.60;99.90;;;;;;5057542;28;20096;-65
2022/02/06 00:06:00;;;;;;;7.60;2.15;;;4.60;99.90;;;;;;5056996;28;20051;-65
2022/02/06 00:08:28;;;;;;;7.38;2.50;;;4.60;99.90;;;;;;5057290;28;20070;-65
2022/02/06 00:10:55;;;;;;;3.03;1.33;;;4.60;99.90;;;;;;5038464;28;20082;-65
2022/02/06 00:13:22;;;;;;;3.60;1.23;;;4.60;99.90;;;;;;5056083;28;20408;-65
2022/02/06 00:15:50;;;;;;;3.10;1.25;;;4.60;99.90;;;;;;5056518;28;20464;-65
2022/02/06 00:18:17;;;;;;;3.30;2.00;;;4.60;99.90;;;;;;5038164;28;20114;-65
2022/02/06 00:20:55;;;;;;;4.57;1.50;;;4.60;99.90;;;;;;5056054;28;20025;-65
2022/02/06 00:23:26;;;;;;;4.22;1.42;;;4.50;99.90;;;;;;5055824;28;20409;-65
2022/02/06 00:26:07;;;;;;;9.50;2.05;;;4.60;99.90;;;;;;5056685;28;20028;-65
2022/02/06 00:28:41;;;;;;;6.05;2.10;;;4.60;99.90;;;;;;5058942;28;20372;-65
2022/02/06 00:31:31;;;;;;;6.10;1.73;;;4.50;99.90;;;;;;5060107;28;20021;-66
2022/02/06 00:34:42;;;;;;;5.35;1.70;;;4.50;99.90;;;;;;5060845;28;20017;-65
2022/02/06 00:39:49;;;;;;;9.07;2.40;;;4.60;99.90;;;;;;5046164;28;20059;-65
2022/02/06 00:42:16;;;;;;;7.50;2.17;;;4.70;99.90;;;;;;5042667;28;20106;-65
2022/02/06 00:44:44;;;;;;;4.15;2.05;;;4.70;99.90;;;;;;5060740;28;20020;-65
2022/02/06 00:47:11;;;;;;;6.88;2.53;;;4.70;99.90;;;;;;5060720;28;20401;-65
2022/02/06 00:49:40;;;;;;;6.82;1.83;;;4.70;99.90;;;;;;5060131;28;20033;-65
2022/02/06 00:52:18;;;;;;;4.55;1.75;;;4.70;99.90;;;;;;5060014;28;20025;-66
2022/02/06 00:54:46;;;;;;;6.45;1.45;;;4.70;99.90;;;;;;5058984;28;20021;-65
2022/02/06 00:57:14;;;;;;;6.90;2.13;;;4.70;99.90;;;;;;5059337;28;20017;-66
2022/02/06 00:59:41;;;;;;;4.20;1.70;;;4.70;99.90;;;;;;5041295;28;20031;-65
2022/02/06 01:02:08;;;;;;;4.95;1.58;;;4.80;99.90;;;;;;5059727;28;20314;-65
2022/02/06 01:04:35;;;;;;;2.97;1.65;;;4.80;99.90;;;;;;5059490;28;20104;-65
2022/02/06 01:07:03;;;;;;;3.20;1.48;;;4.80;99.90;;;;;;5058896;28;20074;-65
2022/02/06 01:09:30;;;;;;;3.70;1.55;;;4.80;99.90;;;;;;5058860;28;20025;-65
2022/02/06 01:11:58;;;;;;;4.20;1.60;;;4.80;99.90;;;;;;5041823;28;20310;-65
2022/02/06 01:14:39;;;;;;;4.20;1.65;;;4.90;99.90;;;;;;5058924;28;20049;-65
2022/02/06 01:17:24;;;;;;;1.98;0.90;;;;;;;;;;5060427;28;20052;-65
2022/02/06 01:20:08;;;;;;;3.38;1.42;;;5.00;99.90;;;;;;5059889;28;20099;-65
2022/02/06 01:22:39;;;;;;;4.03;1.23;;;;;;;;;;5060065;28;20026;-65
2022/02/06 01:25:13;;;;;;;7.13;1.70;;;5.00;99.90;;;;;;5059431;28;20060;-66
2022/02/06 01:27:48;;;;;;;3.70;1.30;;;5.00;99.90;;;;;;5041948;28;20104;-66
2022/02/06 01:30:33;;;;;;;5.55;1.70;;;5.10;99.90;;;;;;5059865;28;20025;-65
2022/02/06 01:33:09;;;;;;;4.07;1.40;;;5.00;99.90;;;;;;5059860;28;20056;-66
2022/02/06 01:35:48;;;;;;;3.30;1.27;;;5.10;99.90;;;;;;5058780;28;20025;-66
2022/02/06 01:38:31;;;;;;;2.60;2.28;;;5.10;99.90;;;;;;5058800;28;20025;-66
2022/02/06 01:41:09;;;;;;;2.40;1.15;;;5.10;99.90;;;;;;5057679;28;20031;-66
2022/02/06 01:43:46;;;;;;;4.57;1.50;;;5.10;99.90;;;;;;5057977;28;20033;-66
2022/02/06 01:46:27;;;;;;;2.50;1.02;;;5.10;99.90;;;;;;5058297;28;20028;-65
2022/02/06 02:00:37;;;;;;;3.38;1.05;;;5.10;99.90;;;;;;5058563;28;20326;-66
2022/02/06 02:00:45;;;;;;;2.63;1.40;;;5.10;99.90;;;;;;5058590;28;20021;-66
2022/02/06 02:14:00;;;;;;;3.90;1.05;;;5.00;99.90;;;;;;5058567;28;20352;-66
2022/02/06 02:17:08;;;;;;;2.65;0.88;;;5.00;99.90;;;;;;5059041;28;20416;-66
2022/02/06 02:25:17;;;;;;;2.13;1.08;;;5.00;99.90;;;;;;5057456;28;20414;-65
2022/02/06 02:33:42;;;;;;;2.37;1.23;;;5.00;99.90;;;;;;5057541;28;20436;-66
2022/02/06 02:47:15;;;;;;;4.70;1.05;;;5.00;99.90;;;;;;5058238;28;19912;-66
2022/02/06 02:50:11;;;;;;;1.52;1.00;;;5.00;99.90;;;;;;5057692;28;20112;-65
2022/02/06 02:55:34;;;;;;;4.35;1.42;;;5.10;99.90;;;;;;5057988;28;20178;-65
2022/02/06 03:00:53;;;;;;;1.77;1.20;;;5.10;99.90;;;;;;5057490;28;20021;-65
2022/02/06 03:03:31;;;;;;;2.25;1.23;;;5.10;99.90;;;;;;5056626;28;20096;-65
2022/02/06 03:06:02;;;;;;;1.52;0.80;;;5.10;99.90;;;;;;5056582;28;20100;-65
2022/02/06 03:08:32;;;;;;;4.78;1.52;;;5.20;99.90;;;;;;5056570;28;20021;-65
2022/02/06 03:11:03;;;;;;;2.22;0.93;;;5.20;99.90;;;;;;5057360;28;20079;-65
2022/02/06 03:13:49;;;;;;;3.38;1.40;;;5.20;99.90;;;;;;5056743;28;20049;-66
2022/02/06 03:16:24;;;;;;;2.13;1.70;;;5.20;99.90;;;;;;5056379;28;20056;-65
2022/02/06 03:19:02;;;;;;;3.10;1.65;;;5.20;99.90;;;;;;5056802;28;20103;-65
2022/02/06 03:21:31;;;;;;;4.32;1.52;;;5.30;99.90;;;;;;5056760;28;20413;-65
2022/02/06 03:26:38;;;;;;;4.63;1.85;;;5.30;99.90;;;;;;5057406;28;20448;-65
2022/02/06 03:29:05;;;;;;;7.38;1.20;;;5.30;99.90;;;;;;5057322;28;20040;-65
2022/02/06 03:31:32;;;;;;;3.65;1.38;;;5.30;99.90;;;;;;5057478;28;20029;-65
2022/02/06 03:34:00;;;;;;;2.60;1.13;;;5.40;99.90;;;;;;5039515;28;20028;-65
2022/02/06 03:36:27;;;;;;;2.25;1.20;;;5.40;99.90;;;;;;5057709;28;20071;-65
2022/02/06 03:38:56;;;;;;;2.05;1.30;;;5.50;99.90;;;;;;5057203;28;20021;-65
2022/02/06 03:41:25;;;;;;;2.70;1.40;;;5.50;99.90;;;;;;5057356;28;20156;-65
2022/02/06 03:44:18;;;;;;;1.65;1.13;;;5.50;99.90;;;;;;5056477;28;20048;-65
2022/02/06 03:46:58;;;;;;;3.88;1.40;;;5.60;99.90;;;;;;5056773;28;20044;-65
2022/02/06 03:49:43;;;;;;;3.28;1.30;;;5.60;99.90;;;;;;5056127;28;20025;-65
2022/02/06 03:52:10;;;;;;;3.15;1.17;;;5.60;99.90;;;;;;5056322;28;20029;-65
2022/02/06 03:54:38;;;;;;;2.13;1.13;;;5.60;99.90;;;;;;5056123;28;20405;-65
2022/02/06 03:57:05;;;;;;;2.25;1.40;;;5.60;99.90;;;;;;5056167;28;20021;-65
2022/02/06 03:59:35;;;;;;;2.53;1.10;;;5.60;99.90;;;;;;5056664;28;20032;-65
2022/02/06 04:02:06;;;;;;;2.40;1.50;;;5.60;99.90;;;;;;5056039;28;20413;-65
2022/02/06 04:04:33;;;;;;;3.65;1.35;;;5.70;99.90;;;;;;5060463;28;20385;-65
2022/02/06 04:07:06;;;;;;;3.05;1.20;;;5.70;99.90;;;;;;5061149;28;20067;-65
2022/02/06 04:09:53;;;;;;;2.53;1.40;;;5.60;99.90;;;;;;5061023;28;20335;-65
2022/02/06 04:12:23;;;;;;;2.20;1.10;;;5.60;99.90;;;;;;5060845;28;20259;-65
2022/02/06 04:15:01;;;;;;;2.55;1.15;;;5.70;99.90;;;;;;5060950;28;20075;-65
2022/02/06 04:17:36;;;;;;;2.88;1.45;;;5.60;99.90;;;;;;5061378;28;20021;-65
2022/02/06 04:20:04;;;;;;;;;;;5.60;99.90;;;;;;5060966;28;20112;-65
2022/02/06 04:22:32;;;;;;;2.33;1.08;;;5.60;99.90;;;;;;5061139;28;20297;-65
2022/02/06 04:24:59;;;;;;;2.35;1.45;;;5.60;99.90;;;;;;5060708;28;20029;-65
2022/02/06 04:27:27;;;;;;;4.63;1.33;;;5.60;99.90;;;;;;5059681;28;20017;-65
2022/02/06 04:29:54;;;;;;;2.03;1.10;;;5.50;99.90;;;;;;5060184;28;20025;-66
2022/02/06 04:32:22;;;;;;;3.55;1.02;;;5.60;99.90;;;;;;5059749;28;20032;-66
2022/02/06 04:34:52;;;;;;;3.08;0.68;;;5.60;99.90;;;;;;5041812;28;20025;-66
2022/02/06 04:40:14;;;;;;;3.22;1.00;;;5.60;99.90;;;;;;5059389;28;20079;-65
2022/02/06 04:45:57;;;;;;;3.25;1.13;;;5.60;99.90;;;;;;5059362;28;20024;-65
2022/02/06 04:51:17;;;;;;;2.92;1.48;;;5.60;99.90;;;;;;5060363;28;20417;-66
2022/02/06 04:54:06;;;;;;;1.90;1.05;;;5.70;99.90;;;;;;5060552;28;20024;-66
2022/02/06 05:21:43;;;;;;;2.47;1.03;;;5.80;99.90;;;;;;4958576;28;20031;-66
2022/02/06 05:26:39;;;;;;;3.47;1.40;;;5.80;99.90;;;;;;5059043;28;20017;-66
2022/02/06 05:29:23;;;;;;;2.25;1.23;;;5.80;99.90;;;;;;5058609;28;20108;-65
2022/02/06 05:34:18;;;;;;;2.40;1.17;;;5.80;99.90;;;;;;5059263;28;20025;-65
2022/02/06 05:36:47;;;;;;;2.53;1.00;;;5.80;99.90;;;;;;5059508;28;20024;-65
2022/02/06 05:39:15;;;;;;;3.15;1.08;;;5.80;99.90;;;;;;5059803;28;20021;-65
2022/02/06 05:41:42;;;;;;;2.65;0.93;;;5.90;99.90;;;;;;5025163;28;20082;-65
2022/02/06 05:44:12;;;;;;;2.58;0.90;;;5.80;99.90;;;;;;5041458;28;20032;-65
2022/02/06 05:46:39;;;;;;;1.20;0.90;;;5.80;99.90;;;;;;5059210;28;20325;-65
2022/02/06 05:49:11;;;;;;;2.00;1.00;;;5.90;99.90;;;;;;5041189;28;20028;-65
2022/02/06 05:51:39;;;;;;;1.75;0.77;;;5.90;99.90;;;;;;5058309;28;20028;-65
2022/02/06 05:54:07;;;;;;;1.50;0.80;;;5.80;99.90;;;;;;5058493;28;20028;-66
2022/02/06 05:56:35;;;;;;;2.75;0.80;;;5.80;99.90;;;;;;5058197;28;20051;-65
2022/02/06 05:59:03;;;;;;;0.88;0.63;;;5.80;99.90;;;;;;5040285;28;20021;-65
2022/02/06 06:01:31;;;;;;;1.52;0.75;;;5.80;99.90;;;;;;5057992;28;20032;-65
2022/02/06 06:03:59;;;;;;;1.30;0.60;;;5.80;99.90;;;;;;5057907;28;20052;-65
2022/02/06 06:06:26;;;;;;;1.25;0.77;;;5.80;99.90;;;;;;5058531;28;20025;-65
2022/02/06 06:08:53;;;;;;;2.50;1.05;;;5.80;99.90;;;;;;5057788;28;20401;-66
2022/02/06 06:11:20;;;;;;;2.92;0.65;;;5.80;99.90;;;;;;5057721;28;20028;-66
2022/02/06 06:13:47;;;;;;;1.02;0.63;;;5.80;99.90;;;;;;5058493;28;20048;-66
2022/02/06 06:16:15;;;;;;;1.13;0.50;;;5.80;99.90;;;;;;5059252;28;20060;-65
2022/02/06 06:18:42;;;;;;;4.00;1.02;;;5.80;99.90;;;;;;5058481;28;20032;-65
2022/02/06 06:21:11;;;;;;;0.98;0.63;;;5.80;99.90;;;;;;5040728;28;20025;-65
2022/02/06 06:23:43;;;;;;;1.02;0.57;;;5.80;99.90;;;;;;5058361;28;20021;-65
2022/02/06 06:26:17;;;;;;;0.77;0.50;;;5.80;99.90;;;;;;5057986;28;20021;-65
2022/02/06 06:28:45;;;;;;;3.15;1.00;;;5.80;99.90;;;;;;5058596;28;20032;-66
2022/02/06 06:31:12;;;;;;;1.92;0.85;;;5.80;99.90;;;;;;5057085;28;20111;-65
2022/02/06 06:33:39;;;;;;;3.42;0.82;;;5.80;99.90;;;;;;5039378;28;20025;-66
2022/02/06 06:36:06;;;;;;;1.10;0.70;;;5.80;99.90;;;;;;5057206;28;20096;-66
2022/02/06 06:38:35;;;;;;;2.42;0.50;;;5.80;99.90;;;;;;5039637;28;20021;-66
2022/02/06 06:41:03;;;;;;;1.08;0.55;;;5.80;99.90;;;;;;5057233;28;20104;-66
2022/02/06 06:43:30;;;;;;;1.27;0.60;;;5.70;99.90;;;;;;5039366;28;20021;-66
2022/02/06 06:45:58;;;;;;;2.88;0.80;;;5.70;99.90;;;;;;5057641;28;20044;-66
2022/02/06 06:48:25;;;;;;;2.67;0.73;;;5.80;99.90;;;;;;5056915;28;20021;-66
2022/02/06 06:50:53;;;;;;;3.47;0.82;;;5.70;99.90;;;;;;5057118;28;20017;-66
2022/02/06 06:53:21;;;;;;;1.63;0.88;;;5.70;99.90;;;;;;5056877;28;20039;-66
2022/02/06 06:55:57;;;;;;;1.65;0.73;;;5.80;99.90;;;;;;5057674;28;20056;-66
2022/02/06 06:58:31;;;;;;;1.20;0.70;;;5.80;99.90;;;;;;5058440;28;20021;-66
2022/02/06 07:03:28;;;;;;;0.98;0.50;;;5.80;99.90;;;;;;5057687;28;20013;-66
2022/02/06 07:05:55;;;;;;;1.88;0.63;;;5.80;99.90;;;;;;5057607;28;20029;-66
2022/02/06 07:08:23;;;;;;;0.75;0.50;;;5.80;99.90;;;;;;5057625;28;20025;-66
2022/02/06 07:10:51;;;;;;;1.13;0.43;;;5.90;99.90;;;;;;5057794;28;20083;-66
2022/02/06 07:13:23;;;;;;;1.00;0.50;;;5.90;99.90;;;;;;5039784;28;20017;-66
2022/02/06 07:15:53;;;;;;;2.65;0.70;;;5.90;99.90;;;;;;5056679;28;20104;-66
2022/02/06 07:18:20;;;;;;;1.23;0.77;;;5.90;99.90;;;;;;5057020;28;20024;-65
2022/02/06 07:20:49;;;;;;;1.38;0.65;;;5.90;99.90;;;;;;5056746;28;20029;-66
2022/02/06 07:23:16;;;;;;;1.65;0.73;;;5.90;99.90;;;;;;5056413;28;20325;-68
2022/02/06 07:25:48;;;;;;;1.05;0.57;;;6.00;99.90;;;;;;5038810;28;20389;-68
2022/02/06 07:28:18;;;;;;;1.77;0.80;;;6.00;99.90;;;;;;5056637;28;20028;-69
2022/02/06 07:30:47;;;;;;;17.75;8.98;;;6.00;99.90;;;;;;5056481;28;20036;-69
2022/02/06 07:33:17;;;;;;;2.97;2.00;;;6.00;99.90;;;;;;5056816;28;20463;-68
2022/02/06 07:35:45;;;;;;;2.88;0.50;;;6.00;99.90;;;;;;5056113;28;20025;-68
2022/02/06 07:38:14;;;;;;;2.33;0.98;;;6.00;99.90;;;;;;5056327;28;20068;-69
2022/02/06 07:40:43;;;;;;;1.67;0.90;;;6.00;99.90;;;;;;5056972;28;20109;-69
2022/02/06 07:43:11;;;;;;;1.00;0.82;;;6.00;99.90;;;;;;5039478;28;20021;-69
2022/02/06 07:45:40;;;;;;;1.23;0.75;;;6.10;99.90;;;;;;5057727;28;20313;-69
2022/02/06 07:48:09;;;;;;;1.55;1.02;;;6.10;99.90;;;;;;5057101;28;20021;-69
2022/02/06 07:50:37;;;;;;;2.45;1.20;;;6.10;99.90;;;;;;5057229;28;20063;-69
2022/02/06 07:53:07;;;;;;;3.10;1.17;;;6.10;99.90;;;;;;5057632;28;20028;-69
2022/02/06 07:55:35;;;;;;;2.85;1.10;;;6.20;99.90;;;;;;5039496;28;20307;-69
2022/02/06 07:58:03;;;;;;;3.47;1.00;;;6.20;99.90;;;;;;5056534;28;20082;-68
2022/02/06 08:00:30;;;;;;;2.03;0.80;;;6.20;99.90;;;;;;5056671;28;20070;-71
2022/02/06 08:02:57;;;;;;;2.10;1.13;;;6.30;99.90;;;;;;5056354;28;20020;-69
2022/02/06 08:05:26;;;;;;;4.75;0.90;;;6.30;99.90;;;;;;5056217;28;20021;-71
2022/02/06 08:07:54;;;;;;;2.30;0.85;;;6.30;99.90;;;;;;5056060;28;20107;-72
2022/02/06 08:10:22;;;;;;;1.95;1.15;;;6.30;99.90;;;;;;5056541;28;20180;-72
2022/02/06 08:13:07;;;;;;;1.67;0.80;;;6.40;99.90;;;;;;5055972;28;20098;-71
2022/02/06 08:15:35;;;;;;;1.58;0.95;;;6.30;99.90;;;;;;5055950;28;20363;-71
2022/02/06 08:18:04;;;;;;;1.83;0.80;;;6.40;99.90;;;;;;5055829;28;20083;-71
2022/02/06 08:20:33;;;;;;;4.22;1.00;;;6.40;99.90;;;;;;5056529;28;20100;-68
2022/02/06 08:23:00;;;;;;;2.05;1.30;;;6.40;99.90;;;;;;5057044;28;20013;-67
2022/02/06 08:25:28;;;;;;;1.50;0.75;;;6.50;99.90;;;;;;5039545;28;20047;-67
2022/02/06 08:27:55;;;;;;;0.88;0.65;;;6.50;99.90;;;;;;5057343;28;20025;-66
2022/02/06 08:30:23;;;;;;;1.45;0.85;;;6.60;99.90;;;;;;5038971;28;20033;-67
2022/02/06 08:32:51;;;;;;;1.30;0.60;;;6.60;99.90;;;;;;5056716;28;20045;-68
2022/02/06 08:35:23;;;;;;;1.65;0.93;;;6.60;99.90;;;;;;5038971;28;20031;-68
2022/02/06 08:37:51;;;;;;;1.55;0.70;;;6.60;99.90;;;;;;5057192;28;20013;-66
2022/02/06 08:40:19;;;;;;;2.20;0.57;;;6.70;99.90;;;;;;5056128;28;20021;-67
2022/02/06 08:42:46;;;;;;;1.23;0.70;;;6.70;99.90;;;;;;5056106;28;20032;-65
2022/02/06 08:45:16;;;;;;;0.98;0.60;;;6.70;99.90;;;;;;5056162;28;20100;-64
2022/02/06 08:47:45;;;;;;;1.60;0.70;;;6.70;99.90;;;;;;5055735;28;20025;-64
2022/02/06 08:50:14;;;;;;;1.27;0.50;;;6.70;99.90;;;;;;5057618;28;20078;-64
2022/02/06 08:52:42;;;;;;;2.20;0.90;;;6.60;99.90;;;;;;5059305;28;20021;-64
2022/02/06 08:55:11;;;;;;;1.25;0.55;;;6.70;99.90;;;;;;5059599;28;20029;-64
2022/02/06 08:57:51;;;;;;;3.22;1.15;;;6.70;99.90;;;;;;5059579;28;20028;-64
2022/02/06 09:00:20;;;;;;;2.55;0.70;;;6.70;99.90;;;;;;5058960;28;20417;-64
2022/02/06 09:02:47;;;;;;;3.50;0.82;;;6.60;99.90;;;;;;5059916;28;20021;-65
2022/02/06 09:05:16;;;;;;;8.13;1.17;;;6.60;99.90;;;;;;5059913;28;20035;-64
2022/02/06 09:07:44;;;;;;;0.70;0.50;;;6.60;99.90;;;;;;5059859;28;20028;-65
2022/02/06 09:10:14;;;;;;;2.53;0.80;;;6.60;99.90;;;;;;5059967;28;20021;-66
2022/02/06 09:12:49;;;;;;;0.90;0.43;;;6.60;99.90;;;;;;5059846;28;20032;-64
2022/02/06 09:15:17;;;;;;;1.27;0.43;;;6.60;99.90;;;;;;5059419;28;20441;-65
2022/02/06 09:17:45;;;;;;;2.42;1.05;;;6.60;99.90;;;;;;5041991;28;20021;-65
2022/02/06 09:20:14;;;;;;;3.45;1.02;;;6.50;99.90;;;;;;5059735;28;20053;-64
2022/02/06 09:22:43;;;;;;;0.70;0.50;;;6.60;99.90;;;;;;5041733;28;20124;-65
2022/02/06 09:25:12;;;;;;;1.88;0.68;;;6.50;99.90;;;;;;5058508;28;20307;-65
2022/02/06 09:27:41;;;;;;;0.90;0.50;;;6.60;99.90;;;;;;5058909;28;20028;-65
2022/02/06 09:30:17;;;;;;;0.55;0.35;;;6.60;99.90;;;;;;5058803;28;20421;-65
2022/02/06 09:35:12;;;;;;;1.17;0.38;;;6.50;99.90;;;;;;5058380;28;20033;-65
2022/02/06 09:37:40;;;;;;;0.28;0.20;;;6.50;99.90;;;;;;5041003;28;20040;-64
2022/02/06 09:40:10;;;;;;;0.73;0.30;;;6.50;99.90;;;;;;5058874;28;20055;-65
2022/02/06 09:42:38;;;;;;;1.38;0.40;;;6.50;99.90;;;;;;5040708;28;20102;-64
2022/02/06 09:45:06;;;;;;;0.63;0.30;;;6.50;99.90;;;;;;5058944;28;20111;-65
2022/02/06 09:47:34;;;;;;;0.20;0.20;;;6.50;99.90;;;;;;5059456;28;20029;-65
2022/02/06 09:50:02;;;;;;;0.73;0.40;;;6.40;99.90;;;;;;5059660;28;20021;-64
2022/02/06 09:52:30;;;;;;;2.63;0.35;;;6.40;99.90;;;;;;5059531;28;20021;-65
2022/02/06 09:55:03;;;;;;;0.70;0.30;;;6.40;99.90;;;;;;5041151;28;20045;-65
2022/02/06 09:57:40;;;;;;;0.85;0.30;;;6.40;99.90;;;;;;5059259;28;20021;-65
2022/02/06 10:00:09;;;;;;;0.50;0.30;;;6.40;99.90;;;;;;5058958;28;20341;-65
2022/02/06 10:02:40;;;;;;;0.95;0.30;;;6.40;99.90;;;;;;5059386;28;20017;-65
2022/02/06 10:05:09;;;;;;;0.25;0.20;;;6.40;99.90;;;;;;5058587;28;20029;-65
2022/02/06 10:07:43;;;;;;;0.52;0.28;;;6.30;99.90;;;;;;5057810;28;20436;-65
2022/02/06 10:10:12;;;;;;;0.40;0.30;;;6.30;99.90;;;;;;5057445;28;20883;-65
2022/02/06 10:12:43;;;;;;;1.73;0.80;;;6.30;99.90;;;;;;5058306;28;20074;-65
2022/02/06 10:15:19;;;;;;;0.40;0.30;;;6.30;99.90;;;;;;5057572;28;20048;-64
2022/02/06 10:17:47;;;;;;;1.15;0.57;;;6.30;99.90;;;;;;5057565;28;20547;-66
2022/02/06 10:20:18;;;;;;;0.30;0.20;;;6.30;99.90;;;;;;5057573;28;20018;-65
2022/02/06 10:22:55;;;;;;;0.60;0.30;;;6.30;99.90;;;;;;5058109;28;20021;-65
2022/02/06 10:25:24;;;;;;;2.53;0.70;;;6.30;99.90;;;;;;5057323;28;20349;-65
2022/02/06 10:28:03;;;;;;;1.40;0.60;;;6.30;99.90;;;;;;5058026;28;20024;-65
2022/02/06 10:30:41;;;;;;;0.43;0.40;;;6.30;99.90;;;;;;5058313;28;20448;-65
2022/02/06 10:33:16;;;;;;;0.30;0.20;;;6.30;99.90;;;;;;5058784;28;20045;-65
2022/02/06 10:35:45;;;;;;;0.63;0.32;;;6.30;99.90;;;;;;5058039;28;20159;-65
2022/02/06 10:38:21;;;;;;;0.25;0.20;;;6.30;99.90;;;;;;5058408;28;20021;-65
2022/02/06 10:41:17;;;;;;;1.92;0.65;;;6.30;99.90;;;;;;5058147;28;20025;-65
2022/02/06 10:44:11;;;;;;;0.47;0.30;;;6.30;99.90;;;;;;5058603;28;20313;-66
2022/02/06 10:46:56;;;;;;;0.32;0.22;;;6.30;99.90;;;;;;5040398;28;20320;-65
2022/02/06 10:49:24;;;;;;;3.40;0.40;;;6.20;99.90;;;;;;5057343;28;20111;-66
2022/02/06 10:52:00;;;;;;;0.30;0.20;;;6.30;99.90;;;;;;5057125;28;20101;-65
2022/02/06 10:54:31;;;;;;;0.20;0.10;;;6.30;99.90;;;;;;5039185;28;20033;-65
2022/02/06 10:57:05;;;;;;;0.30;0.15;;;6.30;99.90;;;;;;5057559;28;20027;-65
2022/02/06 10:59:48;;;;;;;0.10;0.10;;;6.20;99.90;;;;;;5056919;28;20025;-65
2022/02/06 11:02:57;;;;;;;0.75;0.20;;;6.20;99.90;;;;;;5056729;28;20483;-65
2022/02/06 11:05:40;;;;;;;0.22;0.20;;;6.20;99.90;;;;;;5039587;28;20032;-65
2022/02/06 11:08:09;;;;;;;0.20;0.15;;;6.30;99.90;;;;;;5056780;28;20428;-65
2022/02/06 11:10:37;;;;;;;0.77;0.30;;;6.20;99.90;;;;;;5056724;28;20052;-66
2022/02/06 11:13:06;;;;;;;0.10;0.10;;;6.20;99.90;;;;;;5056864;28;20024;-65
2022/02/06 11:15:40;;;;;;;0.40;0.20;;;6.20;99.90;;;;;;5057440;28;20056;-65
2022/02/06 11:18:15;;;;;;;0.53;0.20;;;6.20;99.90;;;;;;5057836;28;20413;-65
2022/02/06 11:20:57;;;;;;;0.10;0.03;;;6.20;99.90;;;;;;5057208;28;20398;-65
2022/02/06 11:23:45;;;;;;;1.75;0.20;;;6.20;99.90;;;;;;5057483;28;20320;-65
2022/02/06 11:26:18;;;;;;;0.32;0.10;;;6.20;99.90;;;;;;5057383;28;20100;-65
2022/02/06 11:28:46;;;;;;;1.02;0.15;;;6.20;99.90;;;;;;5057362;28;20017;-69
2022/02/06 11:31:17;;;;;;;0.10;0.10;;;6.20;99.90;;;;;;5057125;28;20051;-65
2022/02/06 11:33:46;;;;;;;0.10;0.10;;;6.20;99.90;;;;;;5056316;28;20104;-66
2022/02/06 11:36:22;;;;;;;3.00;0.82;;;6.20;99.90;;;;;;5056614;28;20021;-65
2022/02/06 11:45:18;;;;;;;2.05;0.82;;;6.10;99.90;;;;;;5049517;28;20052;-65
2022/02/06 11:47:56;;;;;;;0.30;0.10;;;6.00;99.90;;;;;;5056219;28;20017;-64
2022/02/06 11:50:24;;;;;;;0.15;0.10;;;6.00;99.90;;;;;;5056171;28;20482;-64
2022/02/06 11:52:55;;;;;;;0.38;0.28;;;5.90;99.90;;;;;;5056848;28;20100;-65
2022/02/06 11:55:39;;;;;;;0.50;0.20;;;5.90;99.90;;;;;;5057109;28;20099;-65
2022/02/06 11:58:33;;;;;;;0.00;0.00;;;5.80;99.90;;;;;;5057361;28;20429;-67
2022/02/06 12:01:07;;;;;;;0.03;0.03;;;5.80;99.90;;;;;;5057201;28;20021;-66
2022/02/06 12:03:57;;;;;;;0.00;0.00;;;5.80;99.90;;;;;;5039394;28;20321;-66
2022/02/06 12:06:51;;;;;;;0.10;0.10;;;5.80;99.90;;;;;;5057307;28;20013;-66
2022/02/06 12:09:29;;;;;;;0.20;0.10;;;5.90;99.90;;;;;;5057058;28;20021;-68
2022/02/06 12:12:14;;;;;;;0.00;0.00;;;5.80;99.90;;;;;;5057021;28;20024;-68
2022/02/06 12:14:48;;;;;;;0.10;0.10;;;5.80;99.90;;;;;;5055955;28;20449;-69
2022/02/06 12:20:15;;;;;;;0.77;0.20;;;5.70;99.90;;;;;;5056013;28;20096;-68
2022/02/06 12:22:52;;;;;;;0.20;0.10;;;5.70;99.90;;;;;;5055913;28;20034;-69
2022/02/06 12:25:21;;;;;;;3.22;0.70;;;5.70;99.90;;;;;;5059820;28;20025;-67
2022/02/06 12:28:11;;;;;;;0.03;0.00;;;5.60;99.90;;;;;;5060404;28;20104;-69
2022/02/06 12:30:41;;;;;;;0.00;0.00;;;5.60;99.90;;;;;;5060038;28;20021;-66
2022/02/06 12:33:44;;;;;;;0.10;0.10;;;5.60;99.90;;;;;;5059740;28;20384;-67
2022/02/06 12:37:07;;;;;;;0.20;0.10;;;5.60;99.90;;;;;;5060013;28;20053;-66
2022/02/06 12:39:36;;;;;;;0.20;0.10;;;5.50;99.90;;;;;;5060750;28;20021;-66
2022/02/06 12:42:09;;;;;;;1.42;0.20;;;5.50;99.90;;;;;;5060568;28;20128;-66
2022/02/06 12:44:37;;;;;;;0.15;0.05;;;5.50;99.90;;;;;;5044268;28;20055;-66
2022/02/06 12:47:15;;;;;;;0.63;0.10;;;5.50;99.90;;;;;;5042621;28;20032;-66
2022/02/06 12:49:43;;;;;;;0.20;0.10;;;5.50;99.90;;;;;;5060321;28;20029;-66
2022/02/06 12:52:10;;;;;;;0.20;0.08;;;5.50;99.90;;;;;;5060973;28;20021;-66
2022/02/06 12:54:38;;;;;;;0.10;0.10;;;5.50;99.90;;;;;;5042393;28;20029;-66
2022/02/06 12:57:05;;;;;;;0.15;0.10;;;5.40;99.90;;;;;;5059929;28;20020;-66
2022/02/06 12:59:33;;;;;;;0.25;0.10;;;5.50;99.90;;;;;;5041500;28;20337;-66
2022/02/06 13:02:01;;;;;;;0.30;0.10;;;5.40;99.90;;;;;;5059083;28;20417;-66
2022/02/06 13:04:31;;;;;;;0.10;0.10;;;5.40;99.90;;;;;;5041436;28;20124;-66
2022/02/06 13:07:04;;;;;;;0.43;0.20;;;5.40;99.90;;;;;;5059063;28;20021;-66
2022/02/06 13:09:40;;;;;;;0.10;0.10;;;5.40;99.90;;;;;;5041565;28;20028;-67
2022/02/06 13:26:01;;;;;;;0.10;0.10;;;5.30;99.90;;;;;;5059661;28;20132;-67
2022/02/06 13:36:36;;;;;;;1.02;0.45;;;5.20;99.90;;;;;;5058649;28;20326;-67
2022/02/06 13:39:12;;;;;;;1.90;0.50;;;5.10;99.90;;;;;;5058929;28;20067;-68
2022/02/06 13:41:42;;;;;;;0.55;0.20;;;5.10;99.90;;;;;;5058488;28;20025;-68
2022/02/06 13:44:23;;;;;;;0.32;0.15;;;5.10;99.90;;;;;;5058376;28;20522;-67
2022/02/06 13:46:54;;;;;;;0.00;0.00;;;5.00;99.90;;;;;;5040578;28;20437;-68
2022/02/06 13:49:36;;;;;;;1.27;0.13;;;5.00;99.90;;;;;;5058250;28;20025;-67
2022/02/06 13:52:07;;;;;;;0.00;0.00;;;4.90;99.90;;;;;;5058373;28;20029;-68
2022/02/06 13:54:42;;;;;;;0.05;0.05;;;4.90;99.90;;;;;;5058053;28;20032;-68
2022/02/06 13:57:10;;;;;;;3.10;0.20;;;4.90;99.90;;;;;;5058015;28;20024;-68
2022/02/06 13:59:47;;;;;;;0.20;0.00;;;4.90;99.90;;;;;;5058632;28;20045;-68
2022/02/06 14:02:16;;;;;;;0.00;0.00;;;4.90;99.90;;;;;;5041281;28;20413;-67
2022/02/06 14:04:52;;;;;;;0.00;0.00;;;4.90;99.90;;;;;;5059428;28;20033;-68
2022/02/06 14:07:22;;;;;;;0.38;0.03;;;4.90;99.90;;;;;;5059191;28;20028;-67
2022/02/06 14:12:29;;;;;;;0.00;0.00;;;4.90;99.90;;;;;;5058852;28;20356;-67
2022/02/06 14:15:03;;;;;;;0.10;0.10;;;4.90;99.90;;;;;;5058715;28;20045;-68
2022/02/06 14:17:38;;;;;;;0.05;0.00;;;4.90;99.90;;;;;;5058670;28;20025;-68
2022/02/06 14:20:11;;;;;;;2.17;0.20;;;5.00;99.90;;;;;;5058966;28;20021;-68
2022/02/06 14:22:47;;;;;;;0.88;0.20;;;4.90;99.90;;;;;;5057977;28;20413;-67
2022/02/06 14:25:28;;;;;;;0.60;0.20;;;4.80;99.90;;;;;;5058205;28;20032;-68
2022/02/06 14:27:56;;;;;;;0.20;0.20;;;4.70;99.90;;;;;;5058530;28;20032;-68
2022/02/06 14:30:27;;;;;;;0.38;0.20;;;4.60;99.90;;;;;;5057337;28;20354;-68
2022/02/06 14:33:00;;;;;;;0.28;0.10;;;4.50;99.90;;;;;;5039772;28;20032;-68
2022/02/06 14:35:51;;;;;;;0.30;0.20;;;4.40;99.90;;;;;;5057847;28;20029;-68
2022/02/06 14:38:30;;;;;;;0.50;0.30;;;4.30;99.90;;;;;;5058163;28;20025;-68
2022/02/06 14:41:23;;;;;;;0.73;0.25;;;4.20;99.90;;;;;;5058134;28;20028;-68
2022/02/06 14:43:56;;;;;;;1.05;0.43;;;4.10;99.90;;;;;;5057603;28;20029;-68
2022/02/06 14:46:25;;;;;;;0.20;0.20;;;4.00;99.90;;;;;;5058769;28;20029;-68
2022/02/06 14:48:52;;;;;;;0.25;0.05;;;4.00;99.90;;;;;;5058398;28;20104;-68
2022/02/06 14:51:21;;;;;;;0.85;0.30;;;3.90;99.90;;;;;;5059401;28;20409;-68
2022/02/06 14:53:51;;;;;;;0.25;0.10;;;3.90;99.90;;;;;;5058107;28;20352;-68
2022/02/06 14:56:19;;;;;;;1.17;0.40;;;3.90;99.90;;;;;;5058611;28;20027;-68
2022/02/06 14:58:47;;;;;;;1.52;0.60;;;3.90;99.90;;;;;;5058693;28;20089;-68
2022/02/06 15:01:15;;;;;;;0.60;0.40;;;3.90;99.90;;;;;;5041073;28;20017;-68
2022/02/06 15:03:43;;;;;;;2.67;0.45;;;3.90;99.90;;;;;;5057488;28;20021;-67
2022/02/06 15:06:10;;;;;;;0.45;0.20;;;3.90;99.90;;;;;;5057560;28;20025;-68
2022/02/06 15:08:38;;;;;;;0.63;0.30;;;4.00;99.90;;;;;;5056813;28;20429;-67
2022/02/06 15:11:06;;;;;;;0.65;0.17;;;3.90;99.90;;;;;;5056817;28;20032;-67
2022/02/06 15:13:34;;;;;;;0.77;0.32;;;4.00;99.90;;;;;;5056604;28;20417;-68
2022/02/06 15:16:13;;;;;;;2.58;0.30;;;4.00;99.90;;;;;;5056802;28;20060;-67
2022/02/06 15:19:14;;;;;;;1.33;0.32;;;4.00;99.90;;;;;;5057358;28;20489;-68
2022/02/06 15:21:41;;;;;;;0.57;0.57;;;4.10;99.90;;;;;;5056563;28;20020;-68
2022/02/06 15:24:09;;;;;;;1.05;0.50;;;4.10;99.90;;;;;;5038758;28;20506;-68
2022/02/06 15:26:36;;;;;;;1.70;0.63;;;4.10;99.90;;;;;;5039397;28;20417;-68
2022/02/06 15:29:03;;;;;;;1.33;0.80;;;4.10;99.90;;;;;;5057966;28;20041;-68
2022/02/06 15:31:30;;;;;;;1.40;0.57;;;4.10;99.90;;;;;;5039777;28;20036;-68
2022/02/06 15:33:59;;;;;;;1.17;0.50;;;4.10;99.90;;;;;;5057705;28;20017;-67
2022/02/06 15:36:28;;;;;;;0.80;0.40;;;4.10;99.90;;;;;;5057333;28;20017;-68